createdAt,value
2018-07-31T00:01:12.874Z,7.77
2018-07-31T00:06:21.766Z,6.80
2018-07-31T00:11:25.666Z,8.10
2018-07-31T00:16:29.036Z,7.20
2018-07-31T00:21:32.495Z,6.87
2018-07-31T00:26:36.097Z,7.60
2018-07-31T00:31:39.499Z,7.43
2018-07-31T00:36:42.928Z,7.73
2018-07-31T00:41:46.356Z,6.83
2018-07-31T00:46:49.747Z,7.50
2018-07-31T00:51:53.157Z,7.63
2018-07-31T00:56:56.748Z,8.70
2018-07-31T01:02:00.315Z,8.50
2018-07-31T01:07:03.836Z,7.07
2018-07-31T01:12:07.358Z,7.87
2018-07-31T01:17:11.119Z,8.17
2018-07-31T01:22:14.614Z,7.57
2018-07-31T01:27:18.054Z,7.90
2018-07-31T01:32:21.501Z,7.10
2018-07-31T01:37:24.475Z,7.47
2018-07-31T01:42:27.526Z,7.40
2018-07-31T01:47:30.547Z,7.10
2018-07-31T01:52:33.584Z,7.70
2018-07-31T01:57:36.633Z,8.70
2018-07-31T02:02:39.612Z,6.53
2018-07-31T02:07:42.565Z,6.33
2018-07-31T02:12:45.532Z,7.60
2018-07-31T02:17:48.500Z,7.30
2018-07-31T02:22:51.570Z,8.20
2018-07-31T02:27:54.618Z,8.00
2018-07-31T02:32:57.633Z,7.50
2018-07-31T02:38:00.631Z,7.87
2018-07-31T02:43:03.572Z,7.13
2018-07-31T02:48:06.537Z,9.23
2018-07-31T02:53:09.763Z,7.47
2018-07-31T02:58:12.870Z,7.60
2018-07-31T03:03:16.602Z,9.60
2018-07-31T03:08:19.741Z,8.03
2018-07-31T03:13:22.923Z,8.67
2018-07-31T03:18:26.368Z,7.70
2018-07-31T03:23:29.397Z,7.80
2018-07-31T03:28:32.378Z,7.57
2018-07-31T03:33:35.359Z,8.20
2018-07-31T03:38:38.672Z,8.60
2018-07-31T03:43:41.692Z,9.27
2018-07-31T03:48:44.842Z,9.20
2018-07-31T03:53:47.872Z,8.13
2018-07-31T03:58:50.968Z,8.77
2018-07-31T04:03:54.184Z,9.10
2018-07-31T04:08:57.223Z,8.87
2018-07-31T04:14:00.242Z,8.17
2018-07-31T04:19:03.261Z,8.43
2018-07-31T04:24:06.279Z,7.53
2018-07-31T04:29:09.191Z,8.50
2018-07-31T04:34:12.176Z,9.47
2018-07-31T04:39:15.191Z,8.97
2018-07-31T04:44:18.211Z,7.87
2018-07-31T04:49:21.201Z,8.33
2018-07-31T04:54:24.219Z,8.60
2018-07-31T04:59:27.195Z,8.60
2018-07-31T05:04:30.276Z,7.67
2018-07-31T05:09:33.212Z,8.00
2018-07-31T05:14:36.191Z,7.87
2018-07-31T05:19:39.235Z,7.90
2018-07-31T05:24:42.364Z,8.43
2018-07-31T05:29:45.401Z,8.20
2018-07-31T05:34:48.412Z,7.40
2018-07-31T05:39:51.395Z,7.77
2018-07-31T05:44:54.420Z,7.90
2018-07-31T05:49:57.584Z,8.90
2018-07-31T05:55:00.540Z,8.20
2018-07-31T06:00:05.292Z,7.80
2018-07-31T06:05:08.432Z,8.30
2018-07-31T06:10:11.441Z,8.60
2018-07-31T06:15:14.475Z,8.43
2018-07-31T06:20:17.465Z,8.70
2018-07-31T06:25:20.440Z,9.20
2018-07-31T06:30:23.451Z,7.73
2018-07-31T06:35:26.661Z,8.40
2018-07-31T06:40:29.756Z,8.30
2018-07-31T06:45:32.767Z,8.07
2018-07-31T06:50:35.968Z,9.43
2018-07-31T06:55:38.984Z,9.13
2018-07-31T07:00:42.097Z,8.80
2018-07-31T07:05:45.144Z,8.23
2018-07-31T07:10:48.188Z,9.00
2018-07-31T07:15:51.158Z,9.30
2018-07-31T07:20:54.224Z,8.20
2018-07-31T07:25:57.213Z,9.20
2018-07-31T07:31:00.266Z,8.07
2018-07-31T07:36:03.279Z,10.00
2018-07-31T07:41:06.781Z,9.20
2018-07-31T07:46:09.783Z,8.37
2018-07-31T07:51:13.957Z,8.10
2018-07-31T07:56:17.075Z,8.00
2018-07-31T08:01:20.103Z,8.47
2018-07-31T08:06:23.114Z,8.30
2018-07-31T08:11:26.157Z,8.63
2018-07-31T08:16:29.204Z,8.23
2018-07-31T08:21:32.622Z,8.20
2018-07-31T08:26:35.636Z,8.43
2018-07-31T08:31:38.777Z,8.50
2018-07-31T08:36:41.823Z,8.70
2018-07-31T08:41:45.000Z,8.60
2018-07-31T08:46:48.058Z,8.63
2018-07-31T08:51:51.053Z,8.60
2018-07-31T08:56:54.183Z,8.60
2018-07-31T09:01:57.256Z,7.77
2018-07-31T09:07:00.457Z,8.83
2018-07-31T09:12:03.984Z,8.87
2018-07-31T09:17:07.008Z,7.80
2018-07-31T09:22:10.033Z,7.50
2018-07-31T09:27:13.067Z,7.57
2018-07-31T09:32:20.484Z,7.20
2018-07-31T09:37:23.489Z,6.90
2018-07-31T09:42:26.489Z,7.00
2018-07-31T09:47:29.564Z,6.30
2018-07-31T09:52:32.552Z,6.60
2018-07-31T09:57:35.593Z,6.30
2018-07-31T10:02:38.621Z,6.47
2018-07-31T10:07:41.663Z,6.30
2018-07-31T10:12:44.757Z,6.60
2018-07-31T10:17:47.835Z,6.20
2018-07-31T10:22:50.939Z,5.63
2018-07-31T10:27:53.987Z,6.30
2018-07-31T10:32:57.104Z,5.40
2018-07-31T10:38:00.123Z,5.77
2018-07-31T10:43:03.196Z,5.73
2018-07-31T10:48:06.567Z,5.60
2018-07-31T10:53:09.580Z,5.97
2018-07-31T10:58:12.762Z,6.27
2018-07-31T11:03:15.805Z,5.60
2018-07-31T11:08:18.892Z,6.37
2018-07-31T11:13:21.938Z,6.13
2018-07-31T11:18:24.964Z,6.30
2018-07-31T11:23:28.048Z,6.43
2018-07-31T11:28:31.093Z,6.50
2018-07-31T11:33:34.057Z,6.50
2018-07-31T11:38:37.066Z,7.03
2018-07-31T11:43:40.948Z,5.63
2018-07-31T11:48:43.987Z,5.90
2018-07-31T11:53:47.000Z,6.57
2018-07-31T11:58:50.021Z,5.60
2018-07-31T12:03:53.321Z,6.30
2018-07-31T12:08:56.345Z,6.47
2018-07-31T12:13:59.415Z,6.13
2018-07-31T12:19:02.547Z,6.37
2018-07-31T12:24:05.627Z,6.50
2018-07-31T12:29:08.659Z,5.90
2018-07-31T12:34:11.661Z,7.37
2018-07-31T12:39:14.656Z,6.60
2018-07-31T12:44:17.781Z,5.97
2018-07-31T12:49:20.793Z,6.57
2018-07-31T12:54:23.831Z,7.17
2018-07-31T12:59:26.833Z,6.97
2018-07-31T13:04:29.860Z,6.07
2018-07-31T13:09:32.857Z,6.67
2018-07-31T13:14:35.882Z,7.60
2018-07-31T13:19:39.024Z,6.43
2018-07-31T13:24:42.079Z,6.73
2018-07-31T13:29:45.415Z,6.53
2018-07-31T13:34:48.408Z,5.67
2018-07-31T13:39:51.688Z,6.90
2018-07-31T13:44:55.340Z,6.53
2018-07-31T13:49:58.468Z,6.80
2018-07-31T13:55:01.686Z,6.20
2018-07-31T14:00:05.161Z,6.50
2018-07-31T14:05:08.261Z,5.40
2018-07-31T14:10:11.480Z,5.90
2018-07-31T14:15:14.507Z,5.20
2018-07-31T14:20:17.556Z,6.33
2018-07-31T14:25:20.630Z,5.77
2018-07-31T14:30:23.736Z,5.90
2018-07-31T14:35:26.755Z,5.30
2018-07-31T14:40:29.847Z,6.30
2018-07-31T14:45:32.855Z,5.80
2018-07-31T14:50:35.940Z,6.07
2018-07-31T14:55:39.016Z,5.10
2018-07-31T15:00:42.027Z,5.60
2018-07-31T15:05:45.203Z,5.50
2018-07-31T15:10:48.239Z,5.37
2018-07-31T15:15:51.347Z,5.27
2018-07-31T15:20:54.460Z,4.83
2018-07-31T15:25:57.496Z,4.90
2018-07-31T15:31:00.557Z,5.47
2018-07-31T15:36:03.792Z,4.67
2018-07-31T15:41:06.924Z,4.77
2018-07-31T15:46:10.139Z,4.80
2018-07-31T15:51:13.256Z,4.60
2018-07-31T15:56:16.311Z,4.63
2018-07-31T16:01:19.395Z,4.00
2018-07-31T16:06:22.444Z,4.83
2018-07-31T16:11:25.542Z,4.53
2018-07-31T16:16:28.804Z,3.73
2018-07-31T16:21:31.958Z,4.60
2018-07-31T16:26:35.039Z,4.87
2018-07-31T16:31:38.153Z,4.57
2018-07-31T16:36:41.255Z,4.37
2018-07-31T16:41:44.263Z,4.30
2018-07-31T16:46:47.379Z,3.93
2018-07-31T16:51:50.479Z,4.30
2018-07-31T16:56:53.550Z,4.20
2018-07-31T17:01:57.078Z,3.63
2018-07-31T17:07:00.576Z,4.13
2018-07-31T17:12:04.109Z,4.60
2018-07-31T17:17:07.200Z,4.67
2018-07-31T17:22:10.360Z,3.90
2018-07-31T17:27:13.425Z,6.77
2018-07-31T17:32:16.454Z,4.10
2018-07-31T17:37:19.523Z,4.40
2018-07-31T17:42:22.857Z,3.73
2018-07-31T17:47:25.948Z,4.13
2018-07-31T17:52:29.022Z,3.67
2018-07-31T17:57:32.154Z,3.07
2018-07-31T18:02:35.206Z,6.13
2018-07-31T18:07:38.255Z,4.00
2018-07-31T18:12:41.441Z,3.10
2018-07-31T18:17:44.518Z,3.50
2018-07-31T18:22:48.059Z,3.20
2018-07-31T18:27:51.134Z,2.70
2018-07-31T18:32:54.378Z,2.97
2018-07-31T18:37:57.947Z,3.13
2018-07-31T18:43:01.643Z,3.83
2018-07-31T18:48:04.800Z,3.50
2018-07-31T18:53:07.902Z,3.20
2018-07-31T18:58:11.078Z,4.37
2018-07-31T19:03:14.260Z,4.57
2018-07-31T19:08:17.308Z,4.77
2018-07-31T19:13:20.464Z,4.27
2018-07-31T19:18:23.640Z,3.80
2018-07-31T19:23:26.759Z,3.77
2018-07-31T19:28:31.435Z,3.20
2018-07-31T19:33:34.514Z,3.33
2018-07-31T19:38:37.517Z,4.10
2018-07-31T19:43:40.590Z,3.13
2018-07-31T19:48:43.712Z,3.93
2018-07-31T19:53:46.719Z,3.50
2018-07-31T19:58:49.743Z,3.57
2018-07-31T20:03:52.988Z,3.80
2018-07-31T20:08:56.313Z,3.40
2018-07-31T20:13:59.440Z,2.77
2018-07-31T20:19:02.752Z,3.60
2018-07-31T20:24:06.537Z,3.70
2018-07-31T20:29:09.843Z,3.73
2018-07-31T20:34:13.021Z,3.20
2018-07-31T20:39:16.038Z,3.00
2018-07-31T20:44:19.034Z,3.57
2018-07-31T20:49:21.973Z,3.63
2018-07-31T20:54:24.930Z,3.60
2018-07-31T20:59:27.890Z,3.27
2018-07-31T21:04:30.944Z,3.20
2018-07-31T21:09:33.965Z,3.60
2018-07-31T21:14:37.034Z,3.13
2018-07-31T21:19:40.106Z,3.90
2018-07-31T21:24:43.080Z,2.80
2018-07-31T21:29:46.070Z,3.20
2018-07-31T21:34:49.242Z,3.53
2018-07-31T21:39:52.317Z,2.90
2018-07-31T21:44:55.336Z,2.93
2018-07-31T21:49:58.415Z,2.57
2018-07-31T21:55:01.557Z,2.87
2018-07-31T22:00:08.022Z,3.00
2018-07-31T22:05:11.032Z,2.70
2018-07-31T22:10:14.129Z,2.90
2018-07-31T22:15:17.252Z,2.83
2018-07-31T22:20:20.339Z,3.03
2018-07-31T22:25:23.462Z,2.90
2018-07-31T22:30:26.665Z,2.63
2018-07-31T22:35:29.724Z,2.30
2018-07-31T22:40:32.749Z,3.00
2018-07-31T22:45:35.776Z,2.67
2018-07-31T22:50:38.815Z,2.23
2018-07-31T22:55:41.888Z,2.50
2018-07-31T23:00:44.895Z,2.80
2018-07-31T23:05:47.937Z,2.63
2018-07-31T23:10:50.954Z,3.10
2018-07-31T23:15:54.034Z,3.07
2018-07-31T23:20:57.050Z,2.67
2018-07-31T23:26:00.037Z,2.50
2018-07-31T23:31:03.135Z,3.43
2018-07-31T23:36:06.239Z,3.40
2018-07-31T23:41:09.258Z,2.77
2018-07-31T23:46:12.247Z,3.03
2018-07-31T23:51:15.255Z,2.70
2018-07-31T23:56:18.281Z,3.70
